Wetterdaten: Februar 2013
Datum Temp Feuchte Luftdruck Regen Wind Richtung Sonnenschein UV Solar Windben
01.02.2013 3,2 C 95 % 996,6 hPa 9,6 l/m 0,3 km/h SW 0,00 h 0,5 UV-I 43 W/m 2,4 km/h
02.02.2013 1,2 C 92 % 1005,5 hPa 2,2 l/m 8,6 km/h N-NW 2,25 h 0,7 UV-I 115 W/m 22,5 km/h
03.02.2013 1,1 C 94 % 1011,3 hPa 5,4 l/m 3,5 km/h NW 0,17 h 0,6 UV-I 71 W/m 17,7 km/h
04.02.2013 4,7 C 92 % 1006,6 hPa 14,8 l/m 7,4 km/h W-SW 0,00 h 0,5 UV-I 42 W/m 24,5 km/h
05.02.2013 0,4 C 90 % 997,0 hPa 5,4 l/m 7,4 km/h S-SW 0,50 h 0,5 UV-I 37 W/m 20,5 km/h
06.02.2013 -0,1 C 89 % 1000,3 hPa 0,0 l/m 0,2 km/h S-SO 4,58 h 0,9 UV-I 192 W/m 4,0 km/h
07.02.2013 -0,4 C 92 % 1009,0 hPa 1,0 l/m 1,0 km/h NW 0,08 h 0,6 UV-I 82 W/m 5,3 km/h
08.02.2013 -1,7 C 93 % 1013,6 hPa 0,0 l/m 1,2 km/h NW 0,25 h 0,5 UV-I 76 W/m 6,4 km/h
09.02.2013 -3,1 C 91 % 1018,3 hPa 0,2 l/m 0,5 km/h W-NW 1,17 h 0,7 UV-I 118 W/m 1,6 km/h
10.02.2013 -4,7 C 83 % 1011,6 hPa 0,0 l/m 9,9 km/h SO 4,75 h 0,9 UV-I 188 W/m 22,1 km/h
11.02.2013 -2,8 C 79 % 1007,2 hPa 0,0 l/m 5,8 km/h O-SO 7,00 h 0,9 UV-I 214 W/m 21,3 km/h
12.02.2013 -2,6 C 77 % 1015,3 hPa 0,0 l/m 2,5 km/h O-NO 0,00 h 0,5 UV-I 70 W/m 8,1 km/h
13.02.2013 -2,8 C 87 % 1025,6 hPa 0,0 l/m 0,0 km/h N 3,50 h 0,8 UV-I 145 W/m 0,0 km/h
14.02.2013 -2,0 C 82 % 1018,6 hPa 0,2 l/m 13,5 km/h S-SO 6,17 h 1,0 UV-I 209 W/m 25,3 km/h
15.02.2013 0,5 C 96 % 1019,3 hPa 2,0 l/m 0,1 km/h S 0,00 h 0,6 UV-I 70 W/m 2,8 km/h
16.02.2013 1,9 C 99 % 1023,4 hPa 5,6 l/m 0,1 km/h SW 0,00 h 0,6 UV-I 61 W/m 1,2 km/h
17.02.2013 1,7 C 95 % 1023,8 hPa 0,0 l/m 2,3 km/h O-SO 0,83 h 0,8 UV-I 112 W/m 6,0 km/h
18.02.2013 0,5 C 90 % 1021,0 hPa 0,0 l/m 0,0 km/h SO 0,00 h 0,7 UV-I 87 W/m 0,0 km/h
19.02.2013 -0,7 C 94 % 1017,3 hPa 4,2 l/m 1,1 km/h NW 0,00 h 0,6 UV-I 25 W/m 4,0 km/h
20.02.2013 -2,7 C 91 % 1024,4 hPa 0,4 l/m 1,1 km/h N-NO 0,50 h 0,8 UV-I 102 W/m 4,8 km/h
21.02.2013 -3,1 C 91 % 1022,2 hPa 0,8 l/m 2,9 km/h N-NO 1,50 h 0,9 UV-I 116 W/m 10,4 km/h
22.02.2013 -4,9 C 89 % 1017,8 hPa 0,0 l/m 6,0 km/h N-NO 3,42 h 1,1 UV-I 175 W/m 16,5 km/h
23.02.2013 -3,8 C 92 % 1014,8 hPa 1,8 l/m 6,0 km/h N-NO 0,08 h 0,5 UV-I 93 W/m 15,7 km/h
24.02.2013 -0,5 C 94 % 1015,4 hPa 1,0 l/m 2,5 km/h N-NO 0,25 h 0,9 UV-I 75 W/m 6,1 km/h
25.02.2013 0,2 C 97 % 1022,7 hPa 1,6 l/m 2,5 km/h N-NO 0,00 h 0,8 UV-I 76 W/m 12,5 km/h
26.02.2013 0,0 C 98 % 1031,4 hPa 0,2 l/m 3,6 km/h N-NO 0,25 h 1,0 UV-I 106 W/m 13,3 km/h
27.02.2013 -0,9 C 95 % 1031,5 hPa 0,0 l/m 0,4 km/h NO 0,00 h 0,8 UV-I 77 W/m 4,8 km/h
28.02.2013 0,5 C 90 % 1026,8 hPa 0,0 l/m 3,1 km/h N-NW 0,00 h 1,0 UV-I 108 W/m 7,3 km/h
Min-Datum 10.02.13 10.02.13 01.02.13 17 Tage 01.02.13 - - - - 01.02.13
Min-Zeit 07:15 17:00 21:30 - 06:50 - - - - 06:50
Minimum -9,2 C 66 % 990,7 hPa - 0,0 km/h - - - - 0,0 km/h
Max-Datum 04.02.13 05.02.13 27.02.13 04.02.13 14.02.13 - 11.02.13 21.02.13 20.02.13 05.02.13
Max-Zeit 12:20 20:15 10:25 01:05 12:05 - 16:00 13:40 13:55 09:30
Maximum 6,4 C 100 % 1033,1 hPa 14,8 l/m 33,0 km/h
S-SO
- 6,92 h 1,7 UV-I 550 W/m 53,1 km/h
S-SW
Durchschnitt -0,7 C 91 % 1016,0 hPa #56,4 l/m 3,3 km/h N-NO #37:15 h 0,7 UV-I 103 W/m 10,3 km/h

Durchschnitt Minimum Temp.-2,8 C
Durchschnitt Maximum Temp.1,2 C